Time;durP1;ratioP1;P1;durP2;ratioP2;P2;SDS_P1;SDS_P2;PMS_P1;PMS_P2;Temp;Humidity;BMP_temperature;BMP_pressure;BME280_temperature;BME280_humidity;BME280_pressure;Samples;Min_cycle;Max_cycle;Signal;HPM_P1;HPM_P2
2024/01/10 00:01:59;;;;;;;2.80;2.60;;;2.50;72.50;;;;;;5132271;27;20024;-74
2024/01/10 00:04:25;;;;;;;2.85;2.65;;;2.50;72.50;;;;;;5132229;27;20063;-72
2024/01/10 00:06:50;;;;;;;2.90;2.70;;;2.50;72.50;;;;;;5124973;27;20031;-70
2024/01/10 00:09:16;;;;;;;2.90;2.70;;;2.50;72.50;;;;;;5133213;27;20388;-72
2024/01/10 00:11:42;;;;;;;2.75;2.55;;;2.50;72.50;;;;;;5116789;27;20043;-72
2024/01/10 00:14:07;;;;;;;2.78;2.58;;;2.50;72.50;;;;;;5134119;27;20031;-72
2024/01/10 00:16:33;;;;;;;2.72;2.50;;;2.50;72.60;;;;;;5115656;27;20085;-72
2024/01/10 00:18:59;;;;;;;2.70;2.50;;;2.50;72.60;;;;;;5097482;28;20024;-72
2024/01/10 00:21:25;;;;;;;3.00;2.70;;;2.50;72.60;;;;;;5133264;27;20038;-72
2024/01/10 00:23:50;;;;;;;3.20;2.60;;;2.50;72.50;;;;;;5135892;27;20030;-72
2024/01/10 00:26:16;;;;;;;2.80;2.60;;;2.50;72.50;;;;;;5136302;27;20027;-72
2024/01/10 00:28:42;;;;;;;3.20;2.90;;;2.50;72.50;;;;;;5131494;27;20359;-72
2024/01/10 00:31:08;;;;;;;3.10;2.80;;;2.50;72.50;;;;;;5121341;27;20025;-73
2024/01/10 00:33:34;;;;;;;2.83;2.63;;;2.50;72.50;;;;;;5116995;27;20031;-71
2024/01/10 00:36:00;;;;;;;2.60;2.40;;;2.60;72.50;;;;;;5120062;27;20035;-71
2024/01/10 00:38:26;;;;;;;2.78;2.58;;;2.50;72.50;;;;;;5100234;27;20118;-72
2024/01/10 00:40:52;;;;;;;2.83;2.60;;;2.50;72.50;;;;;;5123573;27;20505;-73
2024/01/10 00:43:17;;;;;;;2.85;2.65;;;2.50;72.50;;;;;;5112869;27;20040;-73
2024/01/10 00:45:43;;;;;;;2.90;2.70;;;2.60;72.50;;;;;;5118680;27;20031;-73
2024/01/10 00:48:09;;;;;;;2.80;2.60;;;2.50;72.40;;;;;;5131118;27;20038;-72
2024/01/10 00:50:34;;;;;;;3.00;2.70;;;2.60;72.40;;;;;;5105014;28;20031;-72
2024/01/10 00:53:00;;;;;;;2.72;2.50;;;2.60;72.40;;;;;;5130189;27;20084;-72
2024/01/10 00:55:25;;;;;;;3.08;2.70;;;2.60;72.40;;;;;;5097730;28;20377;-72
2024/01/10 00:57:51;;;;;;;2.83;2.60;;;2.60;72.40;;;;;;5120381;27;20046;-73
2024/01/10 01:00:17;;;;;;;2.80;2.60;;;2.60;72.30;;;;;;5115255;27;20046;-72
2024/01/10 01:02:42;;;;;;;2.55;2.35;;;2.60;72.30;;;;;;5105417;28;20347;-72
2024/01/10 01:05:08;;;;;;;2.70;2.50;;;2.60;72.30;;;;;;5112645;27;20047;-72
2024/01/10 01:07:34;;;;;;;2.80;2.60;;;2.60;72.40;;;;;;5097984;27;20035;-72
2024/01/10 01:10:00;;;;;;;2.70;2.50;;;2.60;72.40;;;;;;5126006;27;20047;-73
2024/01/10 01:12:26;;;;;;;3.28;2.97;;;2.60;72.30;;;;;;5104201;27;20062;-72
2024/01/10 01:14:51;;;;;;;3.03;2.80;;;2.60;72.30;;;;;;5128095;27;20028;-72
2024/01/10 01:17:17;;;;;;;2.90;2.70;;;2.60;72.30;;;;;;5109533;27;20076;-73
2024/01/10 01:19:43;;;;;;;2.85;2.60;;;2.50;72.20;;;;;;5130188;27;20380;-72
2024/01/10 01:22:08;;;;;;;2.70;2.50;;;2.60;72.90;;;;;;5099378;28;20028;-72
2024/01/10 01:24:34;;;;;;;2.72;2.50;;;2.60;72.30;;;;;;5126555;27;20023;-72
2024/01/10 01:27:00;;;;;;;2.65;2.45;;;2.50;72.30;;;;;;5128666;27;20019;-71
2024/01/10 01:29:25;;;;;;;2.78;2.58;;;2.50;72.30;;;;;;5115421;27;20028;-72
2024/01/10 01:31:52;;;;;;;2.75;2.55;;;2.60;72.30;;;;;;5130889;27;20035;-72
2024/01/10 01:34:18;;;;;;;2.78;2.58;;;2.60;72.30;;;;;;5116038;27;20438;-71
2024/01/10 01:36:43;;;;;;;2.90;2.70;;;2.50;72.30;;;;;;5127107;27;20023;-72
2024/01/10 01:39:09;;;;;;;3.00;2.70;;;2.50;72.30;;;;;;5132701;27;20031;-73
2024/01/10 01:41:35;;;;;;;3.10;2.80;;;2.50;72.30;;;;;;5114574;28;20058;-72
2024/01/10 01:44:01;;;;;;;2.95;2.60;;;2.50;72.30;;;;;;5115600;27;20100;-72
2024/01/10 01:46:27;;;;;;;2.80;2.60;;;2.50;72.30;;;;;;5125728;28;20032;-71
2024/01/10 01:48:53;;;;;;;3.13;2.85;;;2.50;72.40;;;;;;5097148;28;20461;-71
2024/01/10 01:51:21;;;;;;;2.80;2.60;;;2.50;72.40;;;;;;5127648;28;20068;-72
2024/01/10 01:53:49;;;;;;;2.90;2.70;;;2.50;72.30;;;;;;5117947;28;20030;-72
2024/01/10 01:56:16;;;;;;;2.92;2.72;;;2.50;72.40;;;;;;5131579;28;20460;-73
2024/01/10 01:58:44;;;;;;;2.90;2.70;;;2.50;72.40;;;;;;5115364;27;20027;-73
2024/01/10 02:01:11;;;;;;;2.90;2.60;;;2.50;72.40;;;;;;5115447;28;20019;-73
2024/01/10 02:03:37;;;;;;;2.80;2.60;;;2.50;72.40;;;;;;5113297;28;20384;-73
2024/01/10 02:06:03;;;;;;;2.78;2.58;;;2.40;72.40;;;;;;5114631;28;20126;-72
2024/01/10 02:08:33;;;;;;;3.10;2.80;;;2.50;72.40;;;;;;5119379;28;20035;-72
2024/01/10 02:11:00;;;;;;;2.50;2.40;;;2.50;72.40;;;;;;5111408;28;20474;-72
2024/01/10 02:13:26;;;;;;;3.30;3.00;;;2.50;72.40;;;;;;5132990;28;20080;-72
2024/01/10 02:15:52;;;;;;;3.03;2.80;;;2.40;72.30;;;;;;5128465;28;20358;-72
2024/01/10 02:18:18;;;;;;;2.72;2.53;;;2.40;72.30;;;;;;5120146;28;20031;-72
2024/01/10 02:20:44;;;;;;;2.95;2.70;;;2.40;72.40;;;;;;5105634;28;20485;-72
2024/01/10 02:23:10;;;;;;;3.25;2.95;;;2.40;72.40;;;;;;5107540;28;20064;-72
2024/01/10 02:25:37;;;;;;;3.08;2.78;;;2.40;72.30;;;;;;5118328;28;20027;-72
2024/01/10 02:28:03;;;;;;;2.80;2.60;;;2.40;72.30;;;;;;5123541;28;20034;-73
2024/01/10 02:30:29;;;;;;;3.03;2.80;;;2.40;72.30;;;;;;5120606;28;20105;-72
2024/01/10 02:32:54;;;;;;;3.03;2.80;;;2.40;72.30;;;;;;5129086;28;20027;-73
2024/01/10 02:35:20;;;;;;;3.05;2.75;;;2.40;72.20;;;;;;5112337;28;20101;-72
2024/01/10 02:37:46;;;;;;;3.33;3.03;;;2.40;72.20;;;;;;5113746;28;20034;-72
2024/01/10 02:40:11;;;;;;;2.95;2.65;;;2.40;72.20;;;;;;5122588;28;20453;-71
2024/01/10 02:42:37;;;;;;;2.70;2.50;;;2.40;72.20;;;;;;5104207;28;20024;-73
2024/01/10 02:45:04;;;;;;;2.95;2.75;;;2.40;72.20;;;;;;5126163;28;20027;-72
2024/01/10 02:47:30;;;;;;;3.10;2.90;;;2.40;72.10;;;;;;5116257;28;20480;-70
2024/01/10 02:49:56;;;;;;;2.80;2.60;;;2.40;72.10;;;;;;5116779;28;20035;-72
2024/01/10 02:52:21;;;;;;;4.28;3.15;;;2.40;72.10;;;;;;5115069;27;20047;-72
2024/01/10 02:54:47;;;;;;;2.92;2.72;;;2.40;72.10;;;;;;5132572;27;20024;-72
2024/01/10 02:57:13;;;;;;;3.22;2.92;;;2.40;72.10;;;;;;5118616;27;20122;-70
2024/01/10 02:59:39;;;;;;;2.90;2.70;;;2.40;72.00;;;;;;5118504;27;20102;-72
2024/01/10 03:02:05;;;;;;;2.70;2.50;;;2.40;72.00;;;;;;5129546;27;20031;-72
2024/01/10 03:04:30;;;;;;;3.65;3.00;;;2.40;71.90;;;;;;5129401;27;20088;-73
2024/01/10 03:06:56;;;;;;;4.95;3.22;;;2.40;71.90;;;;;;5117223;27;20070;-72
2024/01/10 03:09:23;;;;;;;3.30;3.00;;;2.40;71.80;;;;;;5130275;27;20031;-73
2024/01/10 03:11:48;;;;;;;3.38;3.08;;;2.40;71.90;;;;;;5113125;27;20506;-73
2024/01/10 03:14:14;;;;;;;3.03;2.72;;;2.40;71.80;;;;;;5114802;27;20023;-74
2024/01/10 03:16:40;;;;;;;2.95;2.75;;;2.40;71.90;;;;;;5123803;27;20020;-72
2024/01/10 03:19:06;;;;;;;3.17;2.88;;;2.40;71.90;;;;;;5105311;27;20031;-72
2024/01/10 03:21:32;;;;;;;3.42;3.13;;;2.40;71.80;;;;;;5117666;27;20054;-72
2024/01/10 03:23:59;;;;;;;2.88;2.67;;;2.40;71.80;;;;;;5121567;27;20412;-71
2024/01/10 03:26:26;;;;;;;3.80;3.42;;;2.40;71.80;;;;;;5121258;27;20028;-71
2024/01/10 03:28:52;;;;;;;2.90;2.70;;;2.40;71.80;;;;;;5100980;27;20114;-72
2024/01/10 03:31:18;;;;;;;3.10;2.90;;;2.40;71.80;;;;;;5121922;27;20400;-72
2024/01/10 03:33:44;;;;;;;3.05;2.80;;;2.30;71.80;;;;;;5135885;27;20069;-72
2024/01/10 03:36:12;;;;;;;3.60;3.25;;;2.30;71.80;;;;;;5113795;28;20066;-72
2024/01/10 03:38:38;;;;;;;3.45;3.15;;;2.40;71.80;;;;;;5116589;27;20469;-72
2024/01/10 03:41:03;;;;;;;3.28;2.97;;;2.30;71.70;;;;;;5134882;27;20038;-73
2024/01/10 03:43:29;;;;;;;4.40;3.30;;;2.40;71.80;;;;;;5133864;27;20112;-72
2024/01/10 03:45:55;;;;;;;4.50;3.40;;;2.30;71.60;;;;;;5127654;27;20019;-73
2024/01/10 03:48:20;;;;;;;3.80;3.33;;;2.30;71.60;;;;;;5116380;27;20050;-72
2024/01/10 03:50:46;;;;;;;3.35;3.05;;;2.30;71.70;;;;;;5116701;27;20061;-73
2024/01/10 03:53:12;;;;;;;4.18;3.33;;;2.30;71.60;;;;;;5113919;27;20027;-73
2024/01/10 03:55:38;;;;;;;3.38;3.05;;;2.40;71.60;;;;;;5112049;28;20457;-72
2024/01/10 03:58:04;;;;;;;4.00;3.30;;;2.30;71.50;;;;;;5121779;27;20420;-74
2024/01/10 04:00:30;;;;;;;3.40;3.10;;;2.40;71.60;;;;;;5122931;27;20477;-74
2024/01/10 04:02:56;;;;;;;4.55;3.58;;;2.40;71.60;;;;;;5124527;27;20031;-73
2024/01/10 04:05:24;;;;;;;4.45;3.63;;;2.40;71.50;;;;;;5125144;27;20595;-72
2024/01/10 04:07:50;;;;;;;3.50;3.20;;;2.40;71.40;;;;;;5118164;27;20160;-72
2024/01/10 04:10:18;;;;;;;4.22;3.65;;;2.40;71.40;;;;;;5134531;27;20475;-71
2024/01/10 04:12:44;;;;;;;4.80;3.50;;;2.40;71.40;;;;;;5132669;27;20035;-71
2024/01/10 04:15:11;;;;;;;3.55;3.25;;;2.40;71.40;;;;;;5113308;27;20030;-72
2024/01/10 04:17:37;;;;;;;4.45;3.63;;;2.40;71.40;;;;;;5079821;28;20081;-72
2024/01/10 04:20:04;;;;;;;4.40;3.63;;;2.30;71.30;;;;;;5102817;27;20019;-72
2024/01/10 04:22:30;;;;;;;4.28;3.70;;;2.30;71.30;;;;;;5129859;27;20393;-73
2024/01/10 04:25:00;;;;;;;4.68;3.38;;;2.30;71.30;;;;;;5126086;27;20031;-72
2024/01/10 04:27:26;;;;;;;4.93;4.10;;;2.40;71.30;;;;;;5117808;27;20023;-72
2024/01/10 04:29:53;;;;;;;4.57;3.70;;;2.30;71.20;;;;;;5108212;28;20020;-72
2024/01/10 04:32:18;;;;;;;3.33;2.97;;;2.30;71.20;;;;;;5127176;27;20066;-72
2024/01/10 04:34:44;;;;;;;4.22;3.67;;;2.30;71.20;;;;;;5131662;27;20074;-71
2024/01/10 04:37:10;;;;;;;3.50;3.13;;;2.30;71.30;;;;;;5120171;27;20023;-72
2024/01/10 04:39:37;;;;;;;3.63;3.33;;;2.30;71.30;;;;;;5135369;27;20035;-73
2024/01/10 04:42:04;;;;;;;4.18;3.35;;;2.30;71.20;;;;;;5118004;27;20019;-71
2024/01/10 04:44:29;;;;;;;4.28;3.17;;;2.30;71.20;;;;;;5130843;27;20062;-73
2024/01/10 04:46:55;;;;;;;4.53;3.63;;;2.30;71.20;;;;;;5124435;27;20059;-72
2024/01/10 04:49:21;;;;;;;4.00;3.60;;;2.30;71.20;;;;;;5115157;28;20161;-72
2024/01/10 04:51:47;;;;;;;4.03;3.50;;;2.30;71.20;;;;;;5106878;28;20028;-72
2024/01/10 04:54:13;;;;;;;4.82;3.38;;;2.20;71.20;;;;;;5115272;27;20069;-71
2024/01/10 04:56:38;;;;;;;4.00;3.60;;;2.30;71.20;;;;;;5125863;27;20067;-71
2024/01/10 04:59:04;;;;;;;4.00;3.55;;;2.20;71.20;;;;;;5123737;27;20062;-72
2024/01/10 05:01:31;;;;;;;4.07;3.60;;;2.20;71.20;;;;;;5116942;27;20019;-72
2024/01/10 05:03:57;;;;;;;5.45;3.50;;;2.20;71.20;;;;;;5134070;27;20031;-72
2024/01/10 05:06:23;;;;;;;5.70;4.07;;;2.20;71.20;;;;;;5135480;27;20034;-73
2024/01/10 05:08:49;;;;;;;4.70;3.70;;;2.20;71.20;;;;;;5135491;27;20416;-73
2024/01/10 05:11:15;;;;;;;4.07;3.58;;;2.20;71.30;;;;;;5135475;27;20031;-73
2024/01/10 05:13:42;;;;;;;4.47;3.60;;;2.20;71.20;;;;;;5113000;28;20024;-72
2024/01/10 05:16:08;;;;;;;5.03;3.58;;;2.20;71.20;;;;;;5113156;28;20136;-71
2024/01/10 05:18:33;;;;;;;4.57;3.83;;;2.20;71.20;;;;;;5124695;27;20106;-71
2024/01/10 05:21:00;;;;;;;4.75;3.70;;;2.20;71.30;;;;;;5135047;27;20075;-72
2024/01/10 05:23:26;;;;;;;4.50;3.70;;;2.20;71.30;;;;;;5116614;27;20034;-70
2024/01/10 05:25:51;;;;;;;4.80;3.78;;;2.10;71.20;;;;;;5114589;27;20023;-71
2024/01/10 05:28:17;;;;;;;3.90;3.50;;;2.20;71.30;;;;;;5136020;27;20097;-71
2024/01/10 05:30:43;;;;;;;4.97;4.18;;;2.20;71.30;;;;;;5117591;27;20055;-71
2024/01/10 05:33:10;;;;;;;4.88;3.55;;;2.20;71.30;;;;;;5134900;27;20023;-70
2024/01/10 05:35:36;;;;;;;4.00;3.42;;;2.20;71.30;;;;;;5118350;27;20422;-72
2024/01/10 05:38:02;;;;;;;3.80;3.40;;;2.20;71.30;;;;;;5134874;27;20026;-72
2024/01/10 05:40:30;;;;;;;4.82;3.95;;;2.20;71.30;;;;;;5133116;27;20027;-74
2024/01/10 05:42:56;;;;;;;5.78;4.35;;;2.20;71.30;;;;;;5115998;27;20030;-76
2024/01/10 05:45:22;;;;;;;4.82;4.18;;;2.20;71.30;;;;;;5098086;28;20081;-72
2024/01/10 05:47:50;;;;;;;5.20;4.07;;;2.20;71.30;;;;;;5106623;28;20028;-70
2024/01/10 05:50:16;;;;;;;4.40;3.80;;;2.20;71.20;;;;;;5131467;27;20023;-70
2024/01/10 05:52:43;;;;;;;4.05;3.65;;;2.20;71.30;;;;;;5115712;28;20039;-69
2024/01/10 05:55:09;;;;;;;4.45;3.95;;;2.20;71.20;;;;;;5099934;28;20056;-69
2024/01/10 05:57:39;;;;;;;4.80;3.60;;;2.20;71.30;;;;;;5111607;28;20043;-68
2024/01/10 06:00:09;;;;;;;5.00;4.05;;;2.20;71.20;;;;;;5091094;28;20039;-69
2024/01/10 06:02:39;;;;;;;4.90;4.07;;;2.20;71.20;;;;;;5106920;28;20475;-72
2024/01/10 06:05:09;;;;;;;5.40;3.92;;;2.20;71.20;;;;;;5099155;28;20053;-70
2024/01/10 06:07:35;;;;;;;6.18;3.80;;;2.20;71.30;;;;;;5093320;28;20057;-71
2024/01/10 06:10:01;;;;;;;4.32;3.78;;;2.20;71.50;;;;;;5092708;28;20069;-69
2024/01/10 06:12:28;;;;;;;7.38;3.88;;;2.20;71.60;;;;;;5092629;28;20537;-74
2024/01/10 06:14:54;;;;;;;4.30;3.67;;;2.20;71.70;;;;;;5114487;28;20032;-69
2024/01/10 06:17:20;;;;;;;4.40;3.55;;;2.20;71.70;;;;;;5113992;28;20042;-70
2024/01/10 06:19:46;;;;;;;4.60;3.65;;;2.30;71.80;;;;;;5111881;28;20022;-69
2024/01/10 06:22:12;;;;;;;5.20;4.10;;;2.30;71.80;;;;;;5109105;28;20027;-73
2024/01/10 06:24:38;;;;;;;4.45;3.80;;;2.30;71.80;;;;;;5096149;28;20024;-71
2024/01/10 06:27:05;;;;;;;4.15;3.72;;;2.30;71.80;;;;;;5092727;28;20023;-75
2024/01/10 06:29:31;;;;;;;4.40;3.88;;;2.30;71.70;;;;;;5096370;28;20031;-72
2024/01/10 06:31:57;;;;;;;4.70;3.75;;;2.30;71.70;;;;;;5096441;28;20462;-72
2024/01/10 06:34:24;;;;;;;4.00;3.60;;;2.30;71.70;;;;;;5115142;28;20023;-72
2024/01/10 06:36:50;;;;;;;4.30;3.70;;;2.30;71.60;;;;;;5096369;28;20034;-72
2024/01/10 06:39:19;;;;;;;4.80;3.50;;;2.30;71.70;;;;;;5096430;28;20389;-73
2024/01/10 06:41:47;;;;;;;5.32;3.90;;;2.40;71.70;;;;;;5114678;28;20027;-73
2024/01/10 06:44:12;;;;;;;4.30;3.85;;;2.40;71.60;;;;;;5093546;28;20023;-74
2024/01/10 06:46:38;;;;;;;13.00;8.50;;;2.40;71.60;;;;;;5080684;27;20027;-72
2024/01/10 06:49:04;;;;;;;80.57;49.60;;;2.50;74.90;;;;;;5117370;27;20461;-69
2024/01/10 06:51:30;;;;;;;110.95;88.10;;;2.80;78.60;;;;;;5116191;27;20525;-74
2024/01/10 06:54:02;;;;;;;111.55;84.38;;;3.20;76.80;;;;;;5097537;28;20377;-71
2024/01/10 06:56:28;;;;;;;117.68;88.57;;;3.40;75.70;;;;;;5115069;27;20050;-71
2024/01/10 06:58:54;;;;;;;117.93;84.28;;;3.40;74.90;;;;;;5097431;28;20027;-71
2024/01/10 07:01:21;;;;;;;110.55;80.55;;;3.50;74.50;;;;;;5099212;28;20488;-70
2024/01/10 07:03:47;;;;;;;115.85;81.00;;;3.50;74.30;;;;;;5097726;28;20392;-70
2024/01/10 07:06:14;;;;;;;87.25;65.00;;;3.50;74.10;;;;;;5098502;28;20055;-71
2024/01/10 07:08:42;;;;;;;106.25;75.20;;;3.50;74.00;;;;;;5098976;28;20023;-71
2024/01/10 07:11:08;;;;;;;114.47;79.18;;;3.50;73.90;;;;;;5116981;28;20035;-71
2024/01/10 07:13:34;;;;;;;107.30;76.63;;;3.40;73.90;;;;;;5117666;28;20020;-70
2024/01/10 07:16:02;;;;;;;108.15;73.47;;;3.40;73.90;;;;;;5098603;28;20030;-71
2024/01/10 07:18:28;;;;;;;89.88;65.45;;;3.40;73.90;;;;;;5117132;28;20518;-70
2024/01/10 07:20:54;;;;;;;104.70;73.22;;;3.30;73.80;;;;;;5117287;28;20032;-70
2024/01/10 07:23:20;;;;;;;98.35;66.53;;;3.30;73.80;;;;;;5098580;28;20028;-71
2024/01/10 07:25:45;;;;;;;104.38;71.50;;;3.30;73.90;;;;;;5099084;28;20027;-70
2024/01/10 07:28:11;;;;;;;83.70;57.72;;;3.30;73.80;;;;;;5116803;28;20496;-71
2024/01/10 07:30:37;;;;;;;95.10;63.00;;;3.30;73.80;;;;;;5098535;28;20031;-70
2024/01/10 07:33:02;;;;;;;84.72;58.05;;;3.20;73.80;;;;;;5098441;28;20057;-70
2024/01/10 07:35:29;;;;;;;85.40;59.20;;;3.30;73.90;;;;;;5116629;28;20024;-70
2024/01/10 07:37:55;;;;;;;82.40;54.70;;;3.20;73.80;;;;;;5116178;28;20114;-70
2024/01/10 07:40:20;;;;;;;79.88;53.70;;;3.20;73.80;;;;;;5116426;28;20055;-71
2024/01/10 07:42:46;;;;;;;78.70;50.78;;;3.20;73.80;;;;;;5098322;28;20027;-72
2024/01/10 07:45:12;;;;;;;73.25;50.10;;;3.20;73.80;;;;;;5116755;28;20023;-70
2024/01/10 07:47:38;;;;;;;73.72;51.08;;;3.20;73.80;;;;;;5098484;28;20032;-71
2024/01/10 07:50:14;;;;;;;64.35;43.28;;;3.20;73.70;;;;;;5116705;28;20028;-70
2024/01/10 07:52:40;;;;;;;70.30;48.83;;;3.20;73.70;;;;;;5116448;28;20414;-70
2024/01/10 07:55:06;;;;;;;62.08;43.15;;;3.20;73.70;;;;;;5098041;28;20032;-70
2024/01/10 07:57:33;;;;;;;56.08;40.78;;;3.20;73.70;;;;;;5116353;28;20039;-70
2024/01/10 07:59:59;;;;;;;60.88;42.33;;;3.20;73.60;;;;;;5116289;28;20042;-69
2024/01/10 08:02:25;;;;;;;53.17;38.08;;;3.20;73.60;;;;;;5097746;28;20023;-69
2024/01/10 08:04:51;;;;;;;55.42;38.72;;;3.20;73.60;;;;;;5116087;28;20044;-72
2024/01/10 08:07:17;;;;;;;52.28;35.80;;;3.30;73.60;;;;;;5098763;27;20059;-71
2024/01/10 08:09:43;;;;;;;57.25;38.95;;;3.30;73.60;;;;;;5124699;27;20055;-70
2024/01/10 08:12:08;;;;;;;57.55;38.20;;;3.30;73.60;;;;;;5113770;27;20027;-72
2024/01/10 08:14:34;;;;;;;51.88;36.10;;;3.30;73.60;;;;;;5134041;27;20058;-70
2024/01/10 08:17:00;;;;;;;52.10;34.63;;;3.30;73.50;;;;;;5115862;28;20038;-71
2024/01/10 08:19:27;;;;;;;51.42;30.92;;;3.30;73.50;;;;;;5115935;28;20028;-71
2024/01/10 08:21:53;;;;;;;29.10;21.13;;;3.30;73.40;;;;;;5097438;28;20055;-72
2024/01/10 08:24:22;;;;;;;25.75;19.98;;;3.30;73.60;;;;;;5117908;27;20039;-72
2024/01/10 08:26:54;;;;;;;25.30;18.38;;;3.40;73.70;;;;;;5102457;27;20032;-72
2024/01/10 08:29:21;;;;;;;15.73;9.27;;;3.50;73.70;;;;;;5077428;28;20024;-72
2024/01/10 08:31:48;;;;;;;7.90;5.13;;;3.50;73.80;;;;;;5110292;27;20031;-71
2024/01/10 08:34:14;;;;;;;6.15;4.97;;;3.60;75.10;;;;;;5103356;27;20027;-72
2024/01/10 08:36:40;;;;;;;7.47;5.50;;;3.80;75.20;;;;;;5113381;27;20404;-72
2024/01/10 08:39:08;;;;;;;6.75;5.63;;;3.90;74.90;;;;;;5122362;27;20032;-73
2024/01/10 08:41:36;;;;;;;7.70;5.88;;;4.00;74.50;;;;;;5098103;28;20366;-73
2024/01/10 08:44:02;;;;;;;8.15;5.53;;;4.00;74.20;;;;;;5121483;27;20039;-74
2024/01/10 08:46:28;;;;;;;6.65;5.13;;;4.10;74.10;;;;;;5135616;27;20465;-73
2024/01/10 08:48:53;;;;;;;7.45;5.50;;;4.10;73.90;;;;;;5108159;28;20358;-73
2024/01/10 08:51:19;;;;;;;5.70;4.65;;;4.10;73.70;;;;;;5095917;28;20438;-73
2024/01/10 08:53:45;;;;;;;6.10;4.85;;;4.10;73.60;;;;;;5096884;28;20101;-72
2024/01/10 08:56:11;;;;;;;6.53;4.82;;;4.10;73.60;;;;;;5115053;28;20031;-74
2024/01/10 08:58:37;;;;;;;5.55;4.28;;;4.10;73.50;;;;;;5115178;28;20118;-74
2024/01/10 09:01:08;;;;;;;5.88;4.55;;;4.10;73.50;;;;;;5105396;27;20016;-73
2024/01/10 09:03:34;;;;;;;5.07;4.40;;;4.10;73.40;;;;;;5116783;27;20031;-73
2024/01/10 09:05:59;;;;;;;5.05;4.07;;;4.10;73.40;;;;;;5117336;27;20092;-73
2024/01/10 09:08:25;;;;;;;4.40;3.80;;;4.00;73.30;;;;;;5135677;27;20068;-74
2024/01/10 09:10:51;;;;;;;5.05;4.20;;;4.00;73.30;;;;;;5135462;27;20468;-73
2024/01/10 09:13:17;;;;;;;5.13;4.03;;;4.00;73.30;;;;;;5135485;27;20035;-73
2024/01/10 09:15:43;;;;;;;5.05;4.10;;;4.00;73.30;;;;;;5135248;27;20023;-73
2024/01/10 09:18:08;;;;;;;4.47;3.70;;;4.00;73.30;;;;;;5135003;27;20189;-74
2024/01/10 09:20:35;;;;;;;4.55;3.72;;;4.00;73.30;;;;;;5134963;27;20106;-73
2024/01/10 09:23:04;;;;;;;4.70;3.90;;;4.00;73.20;;;;;;5135155;27;20057;-73
2024/01/10 09:25:29;;;;;;;4.80;3.70;;;4.00;73.20;;;;;;5116613;27;20030;-74
2024/01/10 09:27:55;;;;;;;4.28;3.50;;;4.00;73.10;;;;;;5135013;27;20027;-72
2024/01/10 09:30:21;;;;;;;4.63;3.75;;;4.10;73.10;;;;;;5135163;27;20027;-73
2024/01/10 09:32:47;;;;;;;5.53;3.90;;;4.10;73.10;;;;;;5116578;27;20039;-73
2024/01/10 09:35:13;;;;;;;4.20;3.72;;;4.10;73.10;;;;;;5134887;27;20024;-72
2024/01/10 09:37:39;;;;;;;4.25;3.40;;;4.10;73.10;;;;;;5124748;27;20047;-71
2024/01/10 09:40:08;;;;;;;5.22;4.13;;;4.00;73.00;;;;;;5131563;27;20029;-71
2024/01/10 09:42:37;;;;;;;5.10;3.97;;;4.10;73.00;;;;;;5116122;27;20026;-73
2024/01/10 09:45:08;;;;;;;3.65;3.17;;;4.10;73.00;;;;;;5132912;27;20031;-73
2024/01/10 09:47:38;;;;;;;4.85;3.75;;;4.10;73.00;;;;;;5117283;27;20031;-74
2024/01/10 09:50:05;;;;;;;4.75;4.18;;;4.10;72.90;;;;;;5122556;27;20111;-75
2024/01/10 09:52:39;;;;;;;4.90;3.88;;;4.10;72.90;;;;;;5115584;28;20027;-73
2024/01/10 09:55:05;;;;;;;4.50;3.65;;;4.10;72.90;;;;;;5127430;27;20047;-74
2024/01/10 09:57:31;;;;;;;5.05;3.83;;;4.10;72.80;;;;;;5096037;28;20040;-73
2024/01/10 09:59:57;;;;;;;5.80;4.25;;;4.10;72.80;;;;;;5095780;28;20119;-74
2024/01/10 10:02:23;;;;;;;4.82;4.13;;;4.10;72.80;;;;;;5116704;28;20115;-74
2024/01/10 10:05:12;;;;;;;5.43;3.78;;;4.10;72.80;;;;;;5100179;28;20054;-74
2024/01/10 10:07:53;;;;;;;4.07;3.50;;;4.10;72.80;;;;;;5128646;27;20105;-74
2024/01/10 10:10:19;;;;;;;4.35;3.78;;;4.10;72.80;;;;;;5138582;27;20027;-72
2024/01/10 10:12:52;;;;;;;4.65;4.05;;;4.10;72.70;;;;;;5120251;27;20020;-73
2024/01/10 10:15:19;;;;;;;4.38;3.60;;;4.10;72.70;;;;;;5138687;27;20124;-72
2024/01/10 10:17:47;;;;;;;4.82;4.10;;;4.00;72.70;;;;;;5137538;27;20035;-73
2024/01/10 10:20:27;;;;;;;3.92;3.55;;;4.10;72.70;;;;;;5106061;28;20466;-72
2024/01/10 10:23:00;;;;;;;5.47;3.95;;;4.10;72.70;;;;;;5117587;27;20480;-73
2024/01/10 10:25:45;;;;;;;4.10;3.40;;;4.10;72.70;;;;;;5138798;27;20023;-73
2024/01/10 10:28:11;;;;;;;5.35;4.30;;;4.10;72.60;;;;;;5120238;27;20144;-72
2024/01/10 10:30:36;;;;;;;4.57;3.92;;;4.10;72.50;;;;;;5138402;27;20065;-72
2024/01/10 10:33:04;;;;;;;5.70;3.83;;;4.10;72.50;;;;;;5137977;27;20076;-72
2024/01/10 10:35:30;;;;;;;4.45;3.90;;;4.10;72.50;;;;;;5138147;27;20031;-72
2024/01/10 10:37:58;;;;;;;4.78;4.07;;;4.10;72.50;;;;;;5120027;27;20388;-71
2024/01/10 10:40:23;;;;;;;4.63;3.75;;;4.20;72.50;;;;;;5137989;27;20404;-72
2024/01/10 10:42:54;;;;;;;4.80;3.92;;;4.10;72.40;;;;;;5138057;27;20037;-73
2024/01/10 10:45:26;;;;;;;4.45;3.78;;;4.20;72.50;;;;;;5138013;27;20106;-72
2024/01/10 10:47:58;;;;;;;4.50;3.70;;;4.20;72.50;;;;;;5119491;27;20023;-73
2024/01/10 10:50:25;;;;;;;5.15;3.97;;;4.20;72.40;;;;;;5119437;27;20031;-72
2024/01/10 10:52:51;;;;;;;4.13;3.60;;;4.20;72.40;;;;;;5138010;27;20031;-71
2024/01/10 10:55:19;;;;;;;5.07;4.00;;;4.20;72.40;;;;;;5138044;27;20027;-73
2024/01/10 10:57:49;;;;;;;5.25;4.20;;;4.20;72.40;;;;;;5119310;27;20088;-72
2024/01/10 11:00:20;;;;;;;6.18;4.22;;;4.20;72.30;;;;;;5119051;27;20461;-71
2024/01/10 11:02:46;;;;;;;5.03;4.05;;;4.20;72.30;;;;;;5137865;27;20454;-71
2024/01/10 11:05:12;;;;;;;4.78;3.90;;;4.20;72.30;;;;;;5119343;27;20051;-71
2024/01/10 11:07:45;;;;;;;4.25;3.70;;;4.20;72.30;;;;;;5137631;27;20101;-72
2024/01/10 11:10:36;;;;;;;4.53;3.90;;;4.20;72.20;;;;;;5119039;27;20027;-71
2024/01/10 11:13:46;;;;;;;4.85;4.00;;;4.20;72.20;;;;;;5136693;27;20019;-72
2024/01/10 11:16:42;;;;;;;4.60;3.80;;;4.10;72.20;;;;;;5033925;28;20150;-72
2024/01/10 11:19:39;;;;;;;5.93;4.45;;;4.10;72.20;;;;;;5033963;28;20156;-72
2024/01/10 11:22:14;;;;;;;5.07;3.90;;;4.10;72.20;;;;;;5125394;27;20389;-73
2024/01/10 11:24:39;;;;;;;;;;;4.10;72.20;;;;;;5138097;27;20023;-73
2024/01/10 11:27:13;;;;;;;4.80;3.88;;;4.10;72.40;;;;;;5118620;27;19926;-72
2024/01/10 11:29:39;;;;;;;4.40;3.70;;;4.10;72.20;;;;;;5137062;27;20019;-71
2024/01/10 11:32:16;;;;;;;5.75;3.92;;;4.10;72.20;;;;;;5137234;27;20084;-73
2024/01/10 11:35:14;;;;;;;3.97;3.60;;;4.10;72.20;;;;;;5118697;27;20046;-72
2024/01/10 11:37:44;;;;;;;5.22;3.90;;;4.10;72.20;;;;;;5117382;27;20039;-72
2024/01/10 11:40:45;;;;;;;4.25;3.75;;;4.10;72.20;;;;;;5136923;27;20369;-71
2024/01/10 11:43:13;;;;;;;4.28;3.80;;;4.10;72.20;;;;;;5136956;27;20457;-73
2024/01/10 11:45:51;;;;;;;5.32;4.00;;;4.10;72.30;;;;;;5118288;27;20050;-72
2024/01/10 11:48:27;;;;;;;4.93;4.00;;;4.10;72.20;;;;;;5136906;27;20106;-73
2024/01/10 11:50:53;;;;;;;5.30;3.92;;;4.10;72.30;;;;;;5101830;27;20144;-73
2024/01/10 11:53:57;;;;;;;4.80;4.15;;;4.00;72.20;;;;;;5136550;27;20368;-73
2024/01/10 11:56:46;;;;;;;4.33;3.80;;;4.10;72.30;;;;;;5033302;28;20536;-73
2024/01/10 11:59:14;;;;;;;4.90;3.83;;;4.10;72.30;;;;;;5016727;28;20090;-73
2024/01/10 12:01:41;;;;;;;5.70;4.28;;;4.00;72.30;;;;;;5093166;27;20042;-73
2024/01/10 12:04:07;;;;;;;5.32;4.47;;;4.00;72.30;;;;;;5115310;27;20087;-75
2024/01/10 12:06:37;;;;;;;5.18;4.47;;;4.00;72.30;;;;;;5118738;28;20019;-71
2024/01/10 12:09:11;;;;;;;5.20;4.45;;;4.00;72.40;;;;;;5103716;28;20020;-80
2024/01/10 12:11:39;;;;;;;4.82;3.90;;;4.00;72.40;;;;;;5116306;28;20020;-76
2024/01/10 12:14:05;;;;;;;4.97;3.90;;;4.00;72.40;;;;;;5106767;28;20473;-78
2024/01/10 12:16:32;;;;;;;5.43;4.15;;;4.00;72.40;;;;;;5115622;27;20071;-77
2024/01/10 12:18:58;;;;;;;4.93;4.20;;;4.00;72.40;;;;;;5114516;28;20024;-75
2024/01/10 12:21:24;;;;;;;5.93;4.05;;;4.00;72.50;;;;;;5117833;27;20355;-74
2024/01/10 12:23:51;;;;;;;5.13;4.30;;;3.90;72.40;;;;;;5115825;28;20041;-76
2024/01/10 12:26:18;;;;;;;5.43;4.00;;;3.90;72.40;;;;;;5109520;27;20030;-74
2024/01/10 12:28:55;;;;;;;5.72;4.32;;;3.90;72.50;;;;;;5116609;27;20072;-77
2024/01/10 12:31:22;;;;;;;5.10;4.00;;;3.90;72.50;;;;;;5132424;27;20397;-77
2024/01/10 12:33:49;;;;;;;6.57;4.30;;;3.90;72.50;;;;;;5118158;27;20026;-77
2024/01/10 12:36:17;;;;;;;4.88;4.35;;;3.90;72.50;;;;;;5111891;27;20492;-76
2024/01/10 12:38:44;;;;;;;4.75;3.90;;;3.90;72.50;;;;;;5106785;28;20031;-75
2024/01/10 12:41:11;;;;;;;4.50;3.63;;;3.90;72.50;;;;;;5115266;28;20435;-74
2024/01/10 12:43:37;;;;;;;4.95;4.10;;;3.90;72.60;;;;;;5131491;27;20023;-74
2024/01/10 12:46:10;;;;;;;4.68;4.18;;;3.90;72.50;;;;;;5115979;27;20069;-75
2024/01/10 12:48:37;;;;;;;5.38;4.32;;;3.90;72.50;;;;;;5113623;28;20024;-74
2024/01/10 12:51:07;;;;;;;5.50;4.30;;;3.80;72.40;;;;;;5113867;28;20032;-77
2024/01/10 12:53:37;;;;;;;6.35;4.80;;;3.90;72.50;;;;;;5113768;28;20458;-74
2024/01/10 12:56:04;;;;;;;5.32;4.55;;;3.80;72.50;;;;;;5104259;28;20062;-74
2024/01/10 12:58:30;;;;;;;5.45;4.30;;;3.80;72.50;;;;;;5115128;28;20051;-75